createdAt,value
2023-03-21T00:00:19.907Z,101299.53
2023-03-21T00:03:21.723Z,101303.19
2023-03-21T00:06:23.346Z,101296.09
2023-03-21T00:09:25.479Z,101299.69
2023-03-21T00:12:27.036Z,101293.44
2023-03-21T00:15:39.953Z,101300.53
2023-03-21T00:18:48.844Z,101290.84
2023-03-21T00:22:06.488Z,101298.81
2023-03-21T00:25:10.629Z,101297.13
2023-03-21T00:28:12.178Z,101294.47
2023-03-21T00:31:13.749Z,101285.63
2023-03-21T00:34:16.596Z,101284.78
2023-03-21T00:37:21.688Z,101280.38
2023-03-21T00:40:29.341Z,101275.16
2023-03-21T00:43:34.683Z,101276.94
2023-03-21T00:46:45.477Z,101269.06
2023-03-21T00:49:50.824Z,101269.06
2023-03-21T00:52:52.390Z,101262.81
2023-03-21T00:55:54.064Z,101268.09
2023-03-21T00:58:55.645Z,101267.28
2023-03-21T01:02:00.349Z,101256.66
2023-03-21T01:05:01.996Z,101248.78
2023-03-21T01:08:07.946Z,101249.63
2023-03-21T01:11:19.053Z,101248.72
2023-03-21T01:14:23.700Z,101241.59
2023-03-21T01:17:25.674Z,101244.34
2023-03-21T01:20:27.354Z,101239.13
2023-03-21T01:23:29.869Z,101230.28
2023-03-21T01:26:31.713Z,101234.66
2023-03-21T01:29:33.253Z,101235.59
2023-03-21T01:32:34.832Z,101225.00
2023-03-21T01:35:48.042Z,101231.06
2023-03-21T01:38:52.614Z,101229.28
2023-03-21T01:41:54.171Z,101231.94
2023-03-21T01:44:57.726Z,101225.69
2023-03-21T01:47:59.279Z,101226.53
2023-03-21T01:51:01.673Z,101230.00
2023-03-21T01:54:06.791Z,101227.34
2023-03-21T01:57:13.486Z,101218.56
2023-03-21T02:00:16.707Z,101222.91
2023-03-21T02:03:33.292Z,101221.03
2023-03-21T02:06:46.748Z,101217.56
2023-03-21T02:09:50.866Z,101209.50
2023-03-21T02:12:55.058Z,101207.72
2023-03-21T02:16:05.961Z,101206.84
2023-03-21T02:19:31.936Z,101193.59
2023-03-21T02:22:54.215Z,101190.06
2023-03-21T02:26:17.623Z,101196.25
2023-03-21T02:29:37.670Z,101192.72
2023-03-21T02:32:58.030Z,101189.16
2023-03-21T02:36:18.299Z,101191.81
2023-03-21T02:39:43.103Z,101191.81
2023-03-21T02:43:17.029Z,101186.50
2023-03-21T02:47:05.228Z,101191.81
2023-03-21T02:50:19.581Z,101187.44
2023-03-21T02:53:25.958Z,101179.31
2023-03-21T02:56:28.237Z,101180.19
2023-03-21T02:59:30.487Z,101177.44
2023-03-21T03:02:32.271Z,101179.16
2023-03-21T03:05:37.287Z,101166.78
2023-03-21T03:08:56.373Z,101180.88
2023-03-21T03:12:13.380Z,101179.16
2023-03-21T03:15:38.750Z,101175.56
2023-03-21T03:18:56.907Z,101168.47
2023-03-21T03:22:10.465Z,101179.09
2023-03-21T03:25:23.149Z,101168.47
2023-03-21T03:28:37.286Z,101168.63
2023-03-21T03:31:49.171Z,101164.19
2023-03-21T03:34:56.376Z,101168.56
2023-03-21T03:38:03.235Z,101174.63
2023-03-21T03:41:14.727Z,101170.19
2023-03-21T03:44:16.519Z,101164.03
2023-03-21T03:47:32.882Z,101169.19
2023-03-21T03:50:42.288Z,101166.44
2023-03-21T03:53:49.866Z,101162.94
2023-03-21T03:56:51.684Z,101159.44
2023-03-21T03:59:53.870Z,101165.56
2023-03-21T04:02:55.511Z,101151.38
2023-03-21T04:05:57.170Z,101145.16
2023-03-21T04:09:00.142Z,101150.47
2023-03-21T04:12:03.231Z,101150.47
2023-03-21T04:15:10.760Z,101151.38
2023-03-21T04:18:12.890Z,101152.25
2023-03-21T04:21:14.469Z,101150.47
2023-03-21T04:24:16.146Z,101146.00
2023-03-21T04:27:17.708Z,101142.50
2023-03-21T04:30:19.823Z,101138.91
2023-03-21T04:33:21.374Z,101147.72
2023-03-21T04:36:27.808Z,101138.84
2023-03-21T04:39:29.623Z,101139.66
2023-03-21T04:42:31.286Z,101136.09
2023-03-21T04:45:32.916Z,101135.16
2023-03-21T04:48:34.471Z,101128.03
2023-03-21T04:51:36.982Z,101131.56
2023-03-21T04:54:38.553Z,101128.91
2023-03-21T04:57:40.219Z,101127.13
2023-03-21T05:00:41.902Z,101120.94
2023-03-21T05:03:43.547Z,101126.25
2023-03-21T05:06:46.464Z,101121.81
2023-03-21T05:09:48.242Z,101119.16
2023-03-21T05:12:49.765Z,101114.72
2023-03-21T05:15:51.314Z,101114.72
2023-03-21T05:18:54.802Z,101119.06
2023-03-21T05:21:56.359Z,101113.75
2023-03-21T05:24:57.969Z,101121.72
2023-03-21T05:28:02.050Z,101119.06
2023-03-21T05:31:04.477Z,101117.28
2023-03-21T05:34:06.079Z,101119.06
2023-03-21T05:37:07.636Z,101114.53
2023-03-21T05:40:10.261Z,101116.25
2023-03-21T05:43:11.856Z,101110.03
2023-03-21T05:46:13.468Z,101106.56
2023-03-21T05:49:14.998Z,101104.88
2023-03-21T05:52:16.950Z,101102.03
2023-03-21T05:55:18.686Z,101102.88
2023-03-21T05:58:20.281Z,101096.72
2023-03-21T06:01:21.868Z,101098.53
2023-03-21T06:04:23.450Z,101095.88
2023-03-21T06:07:25.020Z,101095.03
2023-03-21T06:10:26.670Z,101098.59
2023-03-21T06:13:28.433Z,101092.38
2023-03-21T06:16:30.472Z,101097.75
2023-03-21T06:19:32.228Z,101093.28
2023-03-21T06:22:35.485Z,101108.34
2023-03-21T06:25:37.201Z,101101.34
2023-03-21T06:28:39.379Z,101109.31
2023-03-21T06:31:41.334Z,101106.66
2023-03-21T06:34:43.209Z,101105.81
2023-03-21T06:37:46.298Z,101101.34
2023-03-21T06:40:48.918Z,101102.28
2023-03-21T06:43:50.807Z,101106.66
2023-03-21T06:46:53.083Z,101108.34
2023-03-21T06:49:54.788Z,101110.09
2023-03-21T06:52:57.625Z,101105.63
2023-03-21T06:55:59.191Z,101106.41
2023-03-21T06:59:01.136Z,101100.06
2023-03-21T07:02:03.516Z,101111.47
2023-03-21T07:05:05.622Z,101105.13
2023-03-21T07:08:12.756Z,101110.38
2023-03-21T07:11:14.346Z,101108.50
2023-03-21T07:14:15.981Z,101105.72
2023-03-21T07:17:17.532Z,101110.13
2023-03-21T07:20:19.307Z,101104.72
2023-03-21T07:23:23.117Z,101108.13
2023-03-21T07:26:24.675Z,101106.34
2023-03-21T07:29:26.247Z,101114.25
2023-03-21T07:32:30.001Z,101102.59
2023-03-21T07:35:32.774Z,101108.66
2023-03-21T07:38:34.431Z,101102.41
2023-03-21T07:41:36.271Z,101105.06
2023-03-21T07:44:37.831Z,101101.22
2023-03-21T07:47:39.378Z,101109.78
2023-03-21T07:50:41.247Z,101101.66
2023-03-21T07:53:43.889Z,101106.00
2023-03-21T07:56:45.430Z,101112.09
2023-03-21T07:59:47.023Z,101109.44
2023-03-21T08:02:58.712Z,101110.28
2023-03-21T08:06:03.563Z,101110.28
2023-03-21T08:09:05.529Z,101103.19
2023-03-21T08:12:11.228Z,101109.25
2023-03-21T08:15:14.161Z,101104.75
2023-03-21T08:18:15.801Z,101098.47
2023-03-21T08:21:17.490Z,101098.47
2023-03-21T08:24:19.758Z,101094.88
2023-03-21T08:27:21.377Z,101100.19
2023-03-21T08:30:26.231Z,101107.19
2023-03-21T08:33:27.952Z,101102.84
2023-03-21T08:36:30.602Z,101100.19
2023-03-21T08:39:32.173Z,101094.88
2023-03-21T08:42:33.938Z,101101.97
2023-03-21T08:45:36.044Z,101099.22
2023-03-21T08:48:38.857Z,101100.09
2023-03-21T08:51:41.253Z,101100.94
2023-03-21T08:54:44.796Z,101096.41
2023-03-21T08:57:46.611Z,101100.78
2023-03-21T09:00:48.212Z,101099.81
2023-03-21T09:03:51.448Z,101097.97
2023-03-21T09:06:53.039Z,101090.91
2023-03-21T09:10:08.439Z,101089.19
2023-03-21T09:13:16.278Z,101098.13
2023-03-21T09:16:17.848Z,101092.88
2023-03-21T09:19:19.850Z,101093.69
2023-03-21T09:22:23.439Z,101084.69
2023-03-21T09:25:25.509Z,101082.84
2023-03-21T09:28:27.479Z,101085.44
2023-03-21T09:31:29.286Z,101089.03
2023-03-21T09:34:30.847Z,101083.72
2023-03-21T09:37:33.679Z,101093.41
2023-03-21T09:40:52.664Z,101091.63
2023-03-21T09:44:24.694Z,101095.38
2023-03-21T09:47:33.099Z,101088.06
2023-03-21T09:50:37.790Z,101095.00
2023-03-21T09:53:41.867Z,101093.22
2023-03-21T09:56:45.749Z,101088.91
2023-03-21T09:59:51.054Z,101089.97
2023-03-21T10:02:59.887Z,101083.88
2023-03-21T10:06:07.254Z,101082.91
2023-03-21T10:09:24.503Z,101090.88
2023-03-21T10:12:30.693Z,101089.19
2023-03-21T10:15:32.417Z,101082.16
2023-03-21T10:18:34.642Z,101083.13
2023-03-21T10:21:58.969Z,101081.97
2023-03-21T10:25:00.766Z,101079.16
2023-03-21T10:28:05.781Z,101072.81
2023-03-21T10:31:10.926Z,101067.38
2023-03-21T10:34:18.961Z,101074.44
2023-03-21T10:37:20.819Z,101059.50
2023-03-21T10:40:22.388Z,101065.59
2023-03-21T10:43:26.918Z,101065.47
2023-03-21T10:46:29.241Z,101059.22
2023-03-21T10:49:40.286Z,101062.81
2023-03-21T10:52:50.385Z,101053.81
2023-03-21T10:55:54.497Z,101049.19
2023-03-21T10:58:59.606Z,101056.97
2023-03-21T11:02:04.617Z,101050.69
2023-03-21T11:05:26.014Z,101050.69
2023-03-21T11:08:27.764Z,101056.78
2023-03-21T11:11:37.461Z,101046.25
2023-03-21T11:14:39.008Z,101048.91
2023-03-21T11:17:41.795Z,101044.44
2023-03-21T11:20:58.981Z,101035.50
2023-03-21T11:24:01.009Z,101039.13
2023-03-21T11:27:07.289Z,101038.16
2023-03-21T11:30:21.894Z,101034.38
2023-03-21T11:33:33.022Z,101032.38
2023-03-21T11:36:40.863Z,101032.22
2023-03-21T11:39:45.371Z,101039.16
2023-03-21T11:42:51.689Z,101030.88
2023-03-21T11:45:57.564Z,101028.91
2023-03-21T11:49:00.584Z,101026.31
2023-03-21T11:52:25.832Z,101022.81
2023-03-21T11:55:37.172Z,101023.66
2023-03-21T11:58:57.154Z,101023.66
2023-03-21T12:02:26.662Z,101014.84
2023-03-21T12:05:34.539Z,101010.28
2023-03-21T12:08:49.454Z,101016.94
2023-03-21T12:12:18.701Z,100998.88
2023-03-21T12:15:58.965Z,100999.34
2023-03-21T12:19:33.380Z,100991.28
2023-03-21T12:22:49.593Z,100990.53
2023-03-21T12:26:04.172Z,100995.06
2023-03-21T12:29:24.526Z,100981.00
2023-03-21T12:33:04.444Z,100987.19
2023-03-21T12:36:30.080Z,100982.56
2023-03-21T12:39:36.635Z,100985.09
2023-03-21T12:42:50.003Z,100980.47
2023-03-21T12:45:59.114Z,100972.47
2023-03-21T12:49:08.119Z,100968.09
2023-03-21T12:52:16.498Z,100975.13
2023-03-21T12:55:25.755Z,100970.56
2023-03-21T12:58:30.214Z,100969.59
2023-03-21T13:01:36.810Z,100962.38
2023-03-21T13:04:47.486Z,100964.94
2023-03-21T13:07:54.349Z,100954.19
2023-03-21T13:10:58.499Z,100956.84
2023-03-21T13:14:06.936Z,100953.25
2023-03-21T13:17:27.223Z,100947.06
2023-03-21T13:20:51.594Z,100949.06
2023-03-21T13:24:05.550Z,100948.41
2023-03-21T13:27:14.847Z,100945.00
2023-03-21T13:30:27.584Z,100939.75
2023-03-21T13:33:30.209Z,100943.22
2023-03-21T13:36:37.864Z,100944.16
2023-03-21T13:39:44.214Z,100937.88
2023-03-21T13:42:52.185Z,100933.50
2023-03-21T13:45:53.959Z,100927.44
2023-03-21T13:48:59.933Z,100916.78
2023-03-21T13:52:08.993Z,100923.91
2023-03-21T13:55:20.285Z,100914.75
2023-03-21T13:58:39.892Z,100911.28
2023-03-21T14:01:58.285Z,100915.56
2023-03-21T14:05:07.434Z,100911.06
2023-03-21T14:08:27.834Z,100901.47
2023-03-21T14:11:41.961Z,100900.63
2023-03-21T14:15:16.752Z,100891.50
2023-03-21T14:18:35.358Z,100893.09
2023-03-21T14:21:51.661Z,100883.72
2023-03-21T14:25:04.009Z,100885.03
2023-03-21T14:28:13.866Z,100887.69
2023-03-21T14:31:18.110Z,100866.78
2023-03-21T14:34:20.507Z,100863.88
2023-03-21T14:37:47.557Z,100857.47
2023-03-21T14:40:52.386Z,100853.84
2023-03-21T14:44:17.243Z,100853.50
2023-03-21T14:47:21.607Z,100854.00
2023-03-21T14:50:41.526Z,100847.16
2023-03-21T14:53:44.906Z,100857.25
2023-03-21T14:56:53.645Z,100846.91
2023-03-21T14:59:58.229Z,100844.44
2023-03-21T15:03:00.797Z,100844.56
2023-03-21T15:06:02.537Z,100834.91
2023-03-21T15:09:05.325Z,100831.25
2023-03-21T15:12:09.535Z,100831.78
2023-03-21T15:15:16.317Z,100824.75
2023-03-21T15:18:30.002Z,100835.03
2023-03-21T15:21:35.025Z,100833.72
2023-03-21T15:24:41.198Z,100829.56
2023-03-21T15:27:43.793Z,100826.25
2023-03-21T15:30:53.017Z,100820.28
2023-03-21T15:33:55.249Z,100818.75
2023-03-21T15:37:08.580Z,100824.31
2023-03-21T15:40:27.771Z,100819.19
2023-03-21T15:43:39.710Z,100821.09
2023-03-21T15:46:44.292Z,100813.19
2023-03-21T15:49:54.182Z,100816.72
2023-03-21T15:52:58.688Z,100804.34
2023-03-21T15:56:05.931Z,100801.69
2023-03-21T15:59:14.183Z,100803.41
2023-03-21T16:02:22.487Z,100796.28
2023-03-21T16:05:28.553Z,100793.63
2023-03-21T16:08:35.934Z,100787.56
2023-03-21T16:11:43.448Z,100791.16
2023-03-21T16:14:47.366Z,100784.97
2023-03-21T16:17:53.557Z,100781.38
2023-03-21T16:20:57.675Z,100776.25
2023-03-21T16:23:59.293Z,100779.97
2023-03-21T16:27:01.456Z,100784.44
2023-03-21T16:30:03.335Z,100776.66
2023-03-21T16:33:05.681Z,100776.66
2023-03-21T16:36:12.932Z,100771.44
2023-03-21T16:39:19.152Z,100767.16
2023-03-21T16:42:20.734Z,100765.44
2023-03-21T16:45:23.227Z,100765.44
2023-03-21T16:48:24.827Z,100777.06
2023-03-21T16:51:36.346Z,100777.06
2023-03-21T16:54:39.110Z,100781.66
2023-03-21T16:57:41.706Z,100769.19
2023-03-21T17:00:43.554Z,100774.59
2023-03-21T17:03:45.989Z,100769.28
2023-03-21T17:06:51.222Z,100774.59
2023-03-21T17:09:52.726Z,100773.75
2023-03-21T17:12:54.562Z,100772.13
2023-03-21T17:15:56.108Z,100774.91
2023-03-21T17:18:58.028Z,100774.81
2023-03-21T17:21:59.588Z,100777.47
2023-03-21T17:25:03.154Z,100782.91
2023-03-21T17:28:04.817Z,100776.72
2023-03-21T17:31:13.058Z,100777.75
2023-03-21T17:34:15.509Z,100773.50
2023-03-21T17:37:17.626Z,100763.06
2023-03-21T17:40:19.143Z,100772.00
2023-03-21T17:43:21.865Z,100763.34
2023-03-21T17:46:25.457Z,100772.31
2023-03-21T17:49:27.854Z,100763.47
2023-03-21T17:52:29.506Z,100765.16
2023-03-21T17:55:31.628Z,100766.13
2023-03-21T17:58:33.257Z,100764.34
2023-03-21T18:01:35.584Z,100770.47
2023-03-21T18:04:37.343Z,100772.19
2023-03-21T18:11:03.270Z,100774.66
2023-03-21T18:14:15.783Z,100774.56
2023-03-21T18:17:21.315Z,100772.75
2023-03-21T18:20:24.397Z,100771.91
2023-03-21T18:23:26.141Z,100771.03
2023-03-21T18:26:27.752Z,100773.63
2023-03-21T18:30:22.214Z,100777.13
2023-03-21T18:32:52.185Z,100776.09
2023-03-21T18:35:58.651Z,100768.84
2023-03-21T18:39:02.601Z,100769.69
2023-03-21T18:42:05.365Z,100773.09
2023-03-21T18:45:10.611Z,100770.34
2023-03-21T18:48:13.640Z,100779.19
2023-03-21T18:51:17.671Z,100779.94
2023-03-21T18:54:19.377Z,100779.84
2023-03-21T18:57:38.629Z,100786.09
2023-03-21T19:00:42.821Z,100782.59
2023-03-21T19:04:06.110Z,100781.66
2023-03-21T19:07:07.657Z,100772.91
2023-03-21T19:10:18.017Z,100772.69
2023-03-21T19:13:20.783Z,100767.16
2023-03-21T19:16:26.822Z,100771.44
2023-03-21T19:19:31.658Z,100767.72
2023-03-21T19:22:33.196Z,100772.09
2023-03-21T19:25:35.048Z,100766.88
2023-03-21T19:28:36.624Z,100767.72
2023-03-21T19:31:38.236Z,100764.13
2023-03-21T19:34:39.823Z,100760.41
2023-03-21T19:37:41.689Z,100762.84
2023-03-21T19:40:43.926Z,100756.56
2023-03-21T19:43:54.283Z,100757.44
2023-03-21T19:46:56.904Z,100755.50
2023-03-21T19:53:20.763Z,100760.47
2023-03-21T19:56:26.348Z,100754.75
2023-03-21T19:59:28.659Z,100753.56
2023-03-21T20:02:35.988Z,100757.09
2023-03-21T20:05:38.038Z,100751.75
2023-03-21T20:12:01.550Z,100754.97
2023-03-21T20:15:16.543Z,100753.91
2023-03-21T20:18:20.724Z,100752.63
2023-03-21T20:21:25.578Z,100753.25
2023-03-21T20:24:27.578Z,100743.56
2023-03-21T20:27:30.471Z,100746.25
2023-03-21T20:30:32.436Z,100754.97
2023-03-21T20:33:34.398Z,100754.84
2023-03-21T20:36:41.172Z,100750.28
2023-03-21T20:39:44.587Z,100747.50
2023-03-21T20:42:48.687Z,100751.78
2023-03-21T20:45:51.915Z,100748.25
2023-03-21T20:48:53.723Z,100749.00
2023-03-21T20:52:51.815Z,100747.09
2023-03-21T20:55:16.867Z,100750.59
2023-03-21T20:58:43.667Z,100755.91
2023-03-21T21:01:43.187Z,100745.25
2023-03-21T21:05:11.833Z,100736.44
2023-03-21T21:08:06.689Z,100743.44
2023-03-21T21:11:56.913Z,100744.19
2023-03-21T21:14:31.283Z,100746.84
2023-03-21T21:18:01.917Z,100737.19
2023-03-21T21:20:56.295Z,100731.31
2023-03-21T21:23:58.466Z,100727.06
2023-03-21T21:27:01.260Z,100730.66
2023-03-21T21:30:03.061Z,100728.31
2023-03-21T21:33:05.396Z,100727.78
2023-03-21T21:36:08.433Z,100729.94
2023-03-21T21:39:10.033Z,100720.47
2023-03-21T21:42:11.579Z,100703.81
2023-03-21T21:45:13.534Z,100704.16
2023-03-21T21:48:16.006Z,100702.44
2023-03-21T21:51:18.226Z,100707.03
2023-03-21T21:54:19.910Z,100704.56
2023-03-21T21:57:22.816Z,100701.38
2023-03-21T22:00:26.374Z,100697.00
2023-03-21T22:03:28.031Z,100698.13
2023-03-21T22:06:29.878Z,100701.66
2023-03-21T22:09:32.227Z,100695.69
2023-03-21T22:12:34.443Z,100698.56
2023-03-21T22:15:36.099Z,100689.03
2023-03-21T22:18:38.632Z,100697.00
2023-03-21T22:21:40.406Z,100691.00
2023-03-21T22:24:41.955Z,100685.06
2023-03-21T22:27:44.006Z,100683.53
2023-03-21T22:30:45.647Z,100684.59
2023-03-21T22:33:48.685Z,100685.13
2023-03-21T22:36:50.810Z,100679.91
2023-03-21T22:39:52.356Z,100673.00
2023-03-21T22:42:53.971Z,100678.53
2023-03-21T22:45:56.123Z,100676.91
2023-03-21T22:48:57.729Z,100677.91
2023-03-21T22:51:59.831Z,100683.09
2023-03-21T22:55:01.383Z,100676.91
2023-03-21T22:58:03.146Z,100679.69
2023-03-21T23:01:05.460Z,100669.25
2023-03-21T23:04:07.197Z,100671.19
2023-03-21T23:07:08.787Z,100673.09
2023-03-21T23:10:12.316Z,100671.38
2023-03-21T23:13:13.896Z,100663.50
2023-03-21T23:16:16.877Z,100658.63
2023-03-21T23:19:20.233Z,100656.06
2023-03-21T23:22:21.857Z,100656.91
2023-03-21T23:25:24.931Z,100650.75
2023-03-21T23:28:26.490Z,100651.81
2023-03-21T23:31:28.249Z,100656.34
2023-03-21T23:34:30.380Z,100653.94
2023-03-21T23:37:31.978Z,100657.66
2023-03-21T23:40:33.528Z,100656.03
2023-03-21T23:43:35.314Z,100651.78
2023-03-21T23:46:36.875Z,100647.53
2023-03-21T23:49:39.107Z,100641.47
2023-03-21T23:52:44.697Z,100639.84
2023-03-21T23:55:51.776Z,100635.59
2023-03-21T23:58:53.770Z,100630.47
